createdAt,value
2022-11-28T00:00:15.999Z,5.3
2022-11-28T00:02:42.724Z,5.2
2022-11-28T00:05:07.901Z,5.2
2022-11-28T00:07:34.570Z,5.3
2022-11-28T00:10:01.256Z,5.4
2022-11-28T00:12:27.938Z,5.4
2022-11-28T00:14:54.640Z,5.3
2022-11-28T00:17:21.337Z,5.3
2022-11-28T00:19:46.574Z,5.3
2022-11-28T00:22:11.796Z,5.2
2022-11-28T00:24:38.496Z,5.1
2022-11-28T00:27:05.183Z,5.1
2022-11-28T00:29:31.864Z,5
2022-11-28T00:31:58.537Z,5.1
2022-11-28T00:34:25.221Z,5.1
2022-11-28T00:36:51.904Z,5.2
2022-11-28T00:39:18.731Z,5.3
2022-11-28T00:41:45.275Z,5.2
2022-11-28T00:44:11.959Z,5.2
2022-11-28T00:46:38.650Z,5.3
2022-11-28T00:49:05.394Z,5.3
2022-11-28T00:51:32.010Z,5.3
2022-11-28T00:53:58.717Z,5.4
2022-11-28T00:56:23.917Z,5.5
2022-11-28T00:58:50.614Z,5.4
2022-11-28T01:01:17.288Z,5.4
2022-11-28T01:03:43.983Z,5.3
2022-11-28T01:06:10.710Z,5.3
2022-11-28T01:08:37.350Z,5.2
2022-11-28T01:11:04.033Z,5.2
2022-11-28T01:13:30.721Z,5.1
2022-11-28T01:15:57.406Z,5.1
2022-11-28T01:18:24.092Z,5.1
2022-11-28T01:20:50.780Z,5.1
2022-11-28T01:23:17.513Z,5.1
2022-11-28T01:25:44.136Z,5
2022-11-28T01:28:10.880Z,5
2022-11-28T01:30:37.510Z,5
2022-11-28T01:33:02.799Z,4.9
2022-11-28T01:35:27.979Z,5
2022-11-28T01:37:54.655Z,4.9
2022-11-28T01:40:21.353Z,5
2022-11-28T01:42:48.071Z,5
2022-11-28T01:45:14.738Z,5
2022-11-28T01:47:41.423Z,5
2022-11-28T01:50:08.085Z,4.9
2022-11-28T01:52:34.773Z,4.9
2022-11-28T01:55:01.455Z,4.8
2022-11-28T01:57:28.147Z,4.8
2022-11-28T01:59:54.832Z,4.7
2022-11-28T02:02:21.544Z,4.7
2022-11-28T02:04:48.192Z,4.6
2022-11-28T02:07:13.497Z,4.6
2022-11-28T02:09:40.095Z,4.6
2022-11-28T02:12:06.793Z,4.6
2022-11-28T02:14:33.479Z,4.6
2022-11-28T02:17:00.173Z,4.6
2022-11-28T02:19:26.844Z,4.6
2022-11-28T02:21:53.525Z,4.6
2022-11-28T02:24:20.260Z,4.6
2022-11-28T02:26:46.908Z,4.5
2022-11-28T02:29:13.586Z,4.5
2022-11-28T02:31:40.275Z,4.5
2022-11-28T02:34:07.023Z,4.4
2022-11-28T02:36:33.674Z,4.5
2022-11-28T02:39:00.398Z,4.5
2022-11-28T02:43:53.749Z,4.3
2022-11-28T02:46:18.915Z,4.3
2022-11-28T02:48:45.595Z,4.3
2022-11-28T02:51:12.287Z,4.2
2022-11-28T02:53:38.982Z,4.2
2022-11-28T02:56:05.668Z,4.1
2022-11-28T02:58:32.345Z,4.1
2022-11-28T03:00:59.017Z,4.1
2022-11-28T03:03:25.761Z,4.2
2022-11-28T03:05:52.436Z,4.2
2022-11-28T03:08:19.081Z,4.2
2022-11-28T03:10:45.814Z,4.2
2022-11-28T03:13:12.459Z,4.2
2022-11-28T03:15:39.148Z,4.2
2022-11-28T03:18:05.846Z,4.1
2022-11-28T03:20:32.520Z,4.2
2022-11-28T03:22:59.187Z,4.2
2022-11-28T03:25:25.882Z,4.2
2022-11-28T03:27:52.554Z,4.2
2022-11-28T03:30:19.255Z,4.2
2022-11-28T03:32:44.479Z,4.2
2022-11-28T03:35:11.174Z,4.2
2022-11-28T03:37:37.852Z,4.2
2022-11-28T03:40:04.536Z,4.2
2022-11-28T03:42:31.225Z,4.2
2022-11-28T03:44:58.013Z,4.2
2022-11-28T03:47:24.596Z,4.1
2022-11-28T03:49:51.278Z,4.2
2022-11-28T03:52:17.962Z,4.2
2022-11-28T03:57:11.321Z,4.4
2022-11-28T03:59:38.014Z,4.4
2022-11-28T04:02:04.717Z,4.4
2022-11-28T04:04:31.423Z,4.3
2022-11-28T04:06:58.071Z,4.3
2022-11-28T04:09:23.303Z,4.3
2022-11-28T04:11:50.060Z,4.3
2022-11-28T04:14:16.663Z,4.2
2022-11-28T04:16:43.354Z,4.2
2022-11-28T04:21:36.712Z,4.2
2022-11-28T04:26:30.092Z,4.2
2022-11-28T04:28:56.835Z,4.2
2022-11-28T04:31:23.460Z,4.2
2022-11-28T04:33:50.141Z,4.2
2022-11-28T04:36:16.827Z,4.2
2022-11-28T04:41:10.277Z,4.1
2022-11-28T04:43:36.888Z,4.1
2022-11-28T04:46:02.142Z,4.1
2022-11-28T04:48:28.827Z,4.1
2022-11-28T04:50:55.768Z,4
2022-11-28T04:58:15.575Z,4.1
2022-11-28T05:00:40.788Z,4.1
2022-11-28T05:03:07.543Z,4.1
2022-11-28T05:05:34.172Z,4.1
2022-11-28T05:10:27.528Z,4.1
2022-11-28T05:12:54.216Z,4.1
2022-11-28T05:15:20.941Z,4.1
2022-11-28T05:17:47.577Z,4.1
2022-11-28T05:22:41.014Z,4
2022-11-28T05:25:07.646Z,4
2022-11-28T05:27:34.341Z,4
2022-11-28T05:29:59.672Z,4
2022-11-28T05:32:26.272Z,4
2022-11-28T05:34:52.951Z,4
2022-11-28T05:37:18.198Z,4
2022-11-28T05:39:44.871Z,4
2022-11-28T05:42:11.531Z,4
2022-11-28T05:47:04.901Z,3.9
2022-11-28T05:49:31.642Z,3.9
2022-11-28T05:51:58.334Z,3.9
2022-11-28T05:54:25.062Z,3.8
2022-11-28T05:56:51.660Z,3.8
2022-11-28T05:59:18.416Z,3.9
2022-11-28T06:01:45.027Z,3.9
2022-11-28T06:04:11.707Z,3.9
2022-11-28T06:11:31.885Z,3.9
2022-11-28T06:13:58.451Z,3.9
2022-11-28T06:16:25.207Z,3.9
2022-11-28T06:18:51.835Z,3.9
2022-11-28T06:21:18.597Z,3.9
2022-11-28T06:23:45.326Z,3.9
2022-11-28T06:28:38.593Z,3.9
2022-11-28T06:31:03.769Z,3.9
2022-11-28T06:33:30.481Z,3.9
2022-11-28T06:38:23.832Z,3.8
2022-11-28T06:43:17.207Z,3.7
2022-11-28T06:45:44.023Z,3.7
2022-11-28T06:48:10.590Z,3.7
2022-11-28T06:53:03.953Z,3.6
2022-11-28T06:55:30.633Z,3.5
2022-11-28T07:00:24.291Z,3.5
2022-11-28T07:02:50.670Z,3.5
2022-11-28T07:05:17.424Z,3.5
2022-11-28T07:07:44.053Z,3.5
2022-11-28T07:10:10.781Z,3.5
2022-11-28T07:12:35.968Z,3.5
2022-11-28T07:15:02.084Z,3.5
2022-11-28T07:17:28.755Z,3.5
2022-11-28T07:19:55.474Z,3.6
2022-11-28T07:22:22.187Z,3.6
2022-11-28T07:24:48.853Z,3.6
2022-11-28T07:27:15.804Z,3.7
2022-11-28T07:29:42.195Z,3.8
2022-11-28T07:32:08.883Z,3.9
2022-11-28T07:37:02.416Z,4
2022-11-28T07:39:28.996Z,4
2022-11-28T07:41:55.771Z,4
2022-11-28T07:44:22.374Z,4
2022-11-28T07:51:42.454Z,4.1
2022-11-28T07:54:09.223Z,4.1
2022-11-28T07:56:35.906Z,4.1
2022-11-28T07:59:02.596Z,4.1
2022-11-28T08:01:29.114Z,4.2
2022-11-28T08:06:22.659Z,4.2
2022-11-28T08:08:47.784Z,4.2
2022-11-28T08:13:41.845Z,4.3
2022-11-28T08:16:07.755Z,4.4
2022-11-28T08:18:34.448Z,4.4
2022-11-28T08:21:01.326Z,4.5
2022-11-28T08:23:28.020Z,4.5
2022-11-28T08:25:54.707Z,4.6
2022-11-28T08:28:21.424Z,4.6
2022-11-28T08:30:48.094Z,4.7
2022-11-28T08:38:08.110Z,4.9
2022-11-28T08:40:34.846Z,5
2022-11-28T08:43:01.458Z,5.1
2022-11-28T08:45:28.059Z,5.1
2022-11-28T08:47:54.081Z,5.2
2022-11-28T08:50:20.759Z,5.3
2022-11-28T08:55:12.736Z,5.5
2022-11-28T08:57:39.391Z,5.5
2022-11-28T09:00:06.012Z,5.6
2022-11-28T09:02:32.690Z,5.6
2022-11-28T09:04:59.386Z,5.7
2022-11-28T09:07:25.967Z,5.7
2022-11-28T09:09:52.716Z,5.7
2022-11-28T09:12:19.459Z,5.8
2022-11-28T09:14:46.168Z,5.8
2022-11-28T09:17:12.811Z,5.9
2022-11-28T09:19:39.488Z,5.9
2022-11-28T09:22:06.139Z,5.9
2022-11-28T09:24:31.313Z,6
2022-11-28T09:26:58.071Z,6
2022-11-28T09:29:24.771Z,6
2022-11-28T09:34:18.086Z,6
2022-11-28T09:36:44.852Z,6.1
2022-11-28T09:39:11.692Z,6.1
2022-11-28T09:41:38.017Z,6.1
2022-11-28T09:48:58.248Z,6.2
2022-11-28T09:51:24.917Z,6.2
2022-11-28T09:53:50.148Z,6.2
2022-11-28T09:56:16.747Z,6.2
2022-11-28T09:58:43.426Z,6.1
2022-11-28T10:03:36.750Z,6.2
2022-11-28T10:06:03.447Z,6.2
2022-11-28T10:08:30.204Z,6.2
2022-11-28T10:10:56.914Z,6.3
2022-11-28T10:18:16.863Z,6.4
2022-11-28T10:20:43.585Z,6.4
2022-11-28T10:23:10.371Z,6.5
2022-11-28T10:25:37.129Z,6.5
2022-11-28T10:28:02.280Z,6.6
2022-11-28T10:32:55.756Z,6.8
2022-11-28T10:35:22.364Z,6.8
2022-11-28T10:42:42.387Z,6.9
2022-11-28T10:47:35.758Z,7
2022-11-28T10:50:02.492Z,7.1
2022-11-28T10:52:29.165Z,7.1
2022-11-28T10:57:22.514Z,7.3
2022-11-28T11:02:15.880Z,7.4
2022-11-28T11:04:42.780Z,7.5
2022-11-28T11:07:09.085Z,7.5
2022-11-28T11:09:35.830Z,7.5
2022-11-28T11:12:02.537Z,7.5
2022-11-28T11:16:56.137Z,7.6
2022-11-28T11:19:21.163Z,7.6
2022-11-28T11:24:14.819Z,7.7
2022-11-28T11:29:07.801Z,7.9
2022-11-28T11:31:34.544Z,7.9
2022-11-28T11:34:01.165Z,8
2022-11-28T11:36:27.931Z,8
2022-11-28T11:38:54.539Z,8
2022-11-28T11:41:21.592Z,8.1
2022-11-28T11:46:14.633Z,8.2
2022-11-28T11:48:41.313Z,8.2
2022-11-28T11:53:34.648Z,8.2
2022-11-28T11:56:01.492Z,8.2
2022-11-28T12:00:54.864Z,8.3
2022-11-28T12:03:21.566Z,8.3
2022-11-28T12:05:48.063Z,8.3
2022-11-28T12:08:14.847Z,8.3
2022-11-28T12:10:41.454Z,8.3
2022-11-28T12:18:01.673Z,8.3
2022-11-28T12:20:26.941Z,8.3
2022-11-28T12:22:53.620Z,8.4
2022-11-28T12:25:20.257Z,8.4
2022-11-28T12:30:13.699Z,8.6
2022-11-28T12:32:40.363Z,8.6
2022-11-28T12:35:07.229Z,8.7
2022-11-28T12:40:00.263Z,8.8
2022-11-28T12:42:27.060Z,8.9
2022-11-28T12:44:53.583Z,8.9
2022-11-28T12:47:20.443Z,8.9
2022-11-28T12:49:46.947Z,8.9
2022-11-28T12:52:13.718Z,8.8
2022-11-28T12:54:40.320Z,8.8
2022-11-28T12:59:32.230Z,8.8
2022-11-28T13:01:59.096Z,8.8
2022-11-28T13:06:52.420Z,8.7
2022-11-28T13:09:19.139Z,8.7
2022-11-28T13:11:45.643Z,8.7
2022-11-28T13:14:12.512Z,8.7
2022-11-28T13:16:39.024Z,8.7
2022-11-28T13:19:05.835Z,8.7
2022-11-28T13:21:32.574Z,8.7
2022-11-28T13:23:59.235Z,8.8
2022-11-28T13:31:19.416Z,8.8
2022-11-28T13:33:44.343Z,8.8
2022-11-28T13:38:37.711Z,8.9
2022-11-28T13:41:04.577Z,8.9
2022-11-28T13:43:31.249Z,8.9
2022-11-28T13:45:57.882Z,8.9
2022-11-28T13:48:24.607Z,8.9
2022-11-28T13:50:51.418Z,8.9
2022-11-28T13:53:18.007Z,8.9
2022-11-28T13:58:11.360Z,8.9
2022-11-28T14:00:37.977Z,8.9
2022-11-28T14:03:04.739Z,8.9
2022-11-28T14:05:31.238Z,8.8
2022-11-28T14:07:57.953Z,8.8
2022-11-28T14:10:23.190Z,8.8
2022-11-28T14:12:49.860Z,8.8
2022-11-28T14:15:16.984Z,8.8
2022-11-28T14:17:43.393Z,8.8
2022-11-28T14:20:09.969Z,8.7
2022-11-28T14:22:36.752Z,8.7
2022-11-28T14:25:03.279Z,8.7
2022-11-28T14:27:30.182Z,8.6
2022-11-28T14:29:56.692Z,8.6
2022-11-28T14:32:23.305Z,8.6
2022-11-28T14:34:50.012Z,8.6
2022-11-28T14:37:16.683Z,8.6
2022-11-28T14:39:43.508Z,8.5
2022-11-28T14:42:10.050Z,8.5
2022-11-28T14:44:36.981Z,8.5
2022-11-28T14:47:01.982Z,8.5
2022-11-28T14:49:28.711Z,8.4
2022-11-28T14:51:55.363Z,8.4
2022-11-28T14:56:47.298Z,8.4
2022-11-28T14:59:14.071Z,8.3
2022-11-28T15:01:40.928Z,8.3
2022-11-28T15:04:07.375Z,8.3
2022-11-28T15:11:27.397Z,8.2
2022-11-28T15:16:20.887Z,8.1
2022-11-28T15:18:47.495Z,8.1
2022-11-28T15:21:14.345Z,8.1
2022-11-28T15:23:39.357Z,8
2022-11-28T15:26:06.054Z,7.9
2022-11-28T15:28:31.272Z,7.9
2022-11-28T15:33:24.636Z,7.8
2022-11-28T15:35:51.326Z,7.8
2022-11-28T15:38:17.998Z,7.7
2022-11-28T15:40:44.699Z,7.7
2022-11-28T15:43:11.383Z,7.6
2022-11-28T15:45:38.061Z,7.6
2022-11-28T15:48:04.739Z,7.6
2022-11-28T15:50:31.421Z,7.6
2022-11-28T15:52:58.114Z,7.5
2022-11-28T15:55:24.801Z,7.5
2022-11-28T15:57:51.489Z,7.5
2022-11-28T16:00:16.702Z,7.4
2022-11-28T16:05:10.070Z,7.4
2022-11-28T16:07:36.766Z,7.3
2022-11-28T16:10:03.446Z,7.4
2022-11-28T16:12:30.134Z,7.3
2022-11-28T16:14:56.815Z,7.3
2022-11-28T16:17:22.553Z,7.3
2022-11-28T16:24:42.617Z,7.2
2022-11-28T16:27:09.298Z,7.1
2022-11-28T16:29:35.974Z,7.1
2022-11-28T16:32:02.665Z,7.1
2022-11-28T16:34:29.350Z,7.1
2022-11-28T16:39:22.914Z,7
2022-11-28T16:41:47.951Z,7
2022-11-28T16:44:14.633Z,7.1
2022-11-28T16:46:41.310Z,7.1
2022-11-28T16:49:07.988Z,7.1
2022-11-28T16:54:01.367Z,7.1
2022-11-28T16:56:28.063Z,7.1
2022-11-28T16:58:54.730Z,7.1
2022-11-28T17:01:21.408Z,7.1
2022-11-28T17:03:48.687Z,7
2022-11-28T17:06:14.795Z,7
2022-11-28T17:08:41.471Z,7
2022-11-28T17:11:08.170Z,6.9
2022-11-28T17:13:33.387Z,6.9
2022-11-28T17:16:00.091Z,6.9
2022-11-28T17:18:26.752Z,6.9
2022-11-28T17:20:53.435Z,6.9
2022-11-28T17:23:20.134Z,6.9
2022-11-28T17:25:46.801Z,6.9
2022-11-28T17:28:13.494Z,6.9
2022-11-28T17:30:40.169Z,6.9
2022-11-28T17:33:06.860Z,6.8
2022-11-28T17:38:00.219Z,6.8
2022-11-28T17:42:53.594Z,6.8
2022-11-28T17:45:20.287Z,6.8
2022-11-28T17:47:45.522Z,6.8
2022-11-28T17:50:12.203Z,6.8
2022-11-28T17:52:38.897Z,6.8
2022-11-28T17:55:05.570Z,6.8
2022-11-28T17:57:32.249Z,6.8
2022-11-28T17:59:58.942Z,6.8
2022-11-28T18:02:25.630Z,6.8
2022-11-28T18:04:52.307Z,6.8
2022-11-28T18:07:18.986Z,6.8
2022-11-28T18:09:45.680Z,6.8
2022-11-28T18:12:10.916Z,6.8
2022-11-28T18:14:37.604Z,6.8
2022-11-28T18:17:04.291Z,6.8
2022-11-28T18:21:57.663Z,6.7
2022-11-28T18:24:24.354Z,6.7
2022-11-28T18:26:51.035Z,6.7
2022-11-28T18:31:44.390Z,6.8
2022-11-28T18:34:11.083Z,6.8
2022-11-28T18:36:37.764Z,6.8
2022-11-28T18:39:04.456Z,6.8
2022-11-28T18:41:31.141Z,6.8
2022-11-28T18:43:57.825Z,6.8
2022-11-28T18:46:23.053Z,6.8
2022-11-28T18:48:49.732Z,6.8
2022-11-28T18:51:15.586Z,6.8
2022-11-28T18:53:42.266Z,6.8
2022-11-28T18:56:08.955Z,6.8
2022-11-28T18:58:35.632Z,6.8
2022-11-28T19:01:02.321Z,6.8
2022-11-28T19:05:55.708Z,6.8
2022-11-28T19:08:22.388Z,6.8
2022-11-28T19:10:49.064Z,6.8
2022-11-28T19:15:42.443Z,6.8
2022-11-28T19:18:09.183Z,6.8
2022-11-28T19:20:35.821Z,6.8
2022-11-28T19:23:02.499Z,6.8
2022-11-28T19:25:28.150Z,6.8
2022-11-28T19:27:54.396Z,6.8
2022-11-28T19:35:14.450Z,6.8
2022-11-28T19:37:41.149Z,6.8
2022-11-28T19:40:07.832Z,6.8
2022-11-28T19:42:34.510Z,6.8
2022-11-28T19:45:01.206Z,6.8
2022-11-28T19:47:27.893Z,6.8
2022-11-28T19:49:54.571Z,6.7
2022-11-28T19:52:21.254Z,6.8
2022-11-28T19:54:47.947Z,6.7
2022-11-28T19:57:14.616Z,6.7
2022-11-28T19:59:41.314Z,6.7
2022-11-28T20:02:06.530Z,6.6
2022-11-28T20:04:33.198Z,6.6
2022-11-28T20:06:59.892Z,6.6
2022-11-28T20:09:26.568Z,6.6
2022-11-28T20:14:19.935Z,6.5
2022-11-28T20:16:46.631Z,6.5
2022-11-28T20:19:13.315Z,6.5
2022-11-28T20:21:40.004Z,6.5
2022-11-28T20:24:06.681Z,6.4
2022-11-28T20:26:33.355Z,6.4
2022-11-28T20:29:00.071Z,6.4
2022-11-28T20:31:26.751Z,6.4
2022-11-28T20:33:51.953Z,6.4
2022-11-28T20:36:18.642Z,6.4
2022-11-28T20:38:45.323Z,6.4
2022-11-28T20:41:12.078Z,6.4
2022-11-28T20:43:38.702Z,6.3
2022-11-28T20:46:05.396Z,6.3
2022-11-28T20:48:32.060Z,6.3
2022-11-28T20:50:58.758Z,6.3
2022-11-28T20:53:25.428Z,6.3
2022-11-28T20:55:52.108Z,6.3
2022-11-28T20:58:18.801Z,6.4
2022-11-28T21:00:45.500Z,6.4
2022-11-28T21:03:10.744Z,6.4
2022-11-28T21:05:37.436Z,6.4
2022-11-28T21:08:02.652Z,6.4
2022-11-28T21:10:29.329Z,6.4
2022-11-28T21:12:56.016Z,6.4
2022-11-28T21:15:22.696Z,6.4
2022-11-28T21:17:49.389Z,6.4
2022-11-28T21:20:16.085Z,6.4
2022-11-28T21:22:42.761Z,6.4
2022-11-28T21:25:09.449Z,6.4
2022-11-28T21:27:36.128Z,6.4
2022-11-28T21:30:01.385Z,6.4
2022-11-28T21:34:54.758Z,6.4
2022-11-28T21:37:20.152Z,6.4
2022-11-28T21:39:46.643Z,6.3
2022-11-28T21:42:13.340Z,6.3
2022-11-28T21:44:40.030Z,6.3
2022-11-28T21:47:06.711Z,6.3
2022-11-28T21:49:33.391Z,6.3
2022-11-28T21:52:00.094Z,6.3
2022-11-28T21:54:26.758Z,6.4
2022-11-28T21:59:20.144Z,6.3
2022-11-28T22:01:46.963Z,6.4
2022-11-28T22:04:13.534Z,6.4
2022-11-28T22:06:40.251Z,6.4
2022-11-28T22:09:07.163Z,6.4
2022-11-28T22:11:33.578Z,6.4
2022-11-28T22:16:26.944Z,6.4
2022-11-28T22:18:53.624Z,6.5
2022-11-28T22:21:19.060Z,6.5
2022-11-28T22:23:44.119Z,6.5
2022-11-28T22:26:10.762Z,6.5
2022-11-28T22:31:04.137Z,6.5
2022-11-28T22:33:30.840Z,6.5
2022-11-28T22:35:57.504Z,6.5
2022-11-28T22:38:24.187Z,6.5
2022-11-28T22:40:50.868Z,6.5
2022-11-28T22:45:44.480Z,6.5
2022-11-28T22:48:10.944Z,6.5
2022-11-28T22:50:37.612Z,6.5
2022-11-28T22:55:30.995Z,6.5
2022-11-28T22:57:57.669Z,6.5
2022-11-28T23:00:24.358Z,6.6
2022-11-28T23:02:51.050Z,6.6
2022-11-28T23:05:16.312Z,6.6
2022-11-28T23:10:10.168Z,6.6
2022-11-28T23:15:03.051Z,6.6
2022-11-28T23:17:29.728Z,6.6
2022-11-28T23:19:54.941Z,6.6
2022-11-28T23:24:48.307Z,6.6
2022-11-28T23:29:42.135Z,6.6
2022-11-28T23:32:08.381Z,6.6
2022-11-28T23:34:35.645Z,6.6
2022-11-28T23:44:21.792Z,6.6
2022-11-28T23:46:48.489Z,6.6
2022-11-28T23:49:15.169Z,6.5
2022-11-28T23:51:41.848Z,6.5
